sensor_id;sensor_type;location;lat;lon;timestamp;P1;durP1;ratioP1;P2;durP2;ratioP2
21519;SDS011;10921;53.614;9.882;2023-10-19T00:01:26;25.63;;;22.90;;
21519;SDS011;10921;53.614;9.882;2023-10-19T00:03:54;24.60;;;22.15;;
21519;SDS011;10921;53.614;9.882;2023-10-19T00:06:25;25.38;;;22.75;;
21519;SDS011;10921;53.614;9.882;2023-10-19T00:08:52;25.38;;;22.67;;
21519;SDS011;10921;53.614;9.882;2023-10-19T00:11:19;25.27;;;22.67;;
21519;SDS011;10921;53.614;9.882;2023-10-19T00:13:50;25.23;;;22.52;;
21519;SDS011;10921;53.614;9.882;2023-10-19T00:16:16;24.75;;;22.35;;
21519;SDS011;10921;53.614;9.882;2023-10-19T00:18:44;27.52;;;23.33;;
21519;SDS011;10921;53.614;9.882;2023-10-19T00:21:15;27.02;;;23.00;;
21519;SDS011;10921;53.614;9.882;2023-10-19T00:23:45;27.92;;;24.33;;
21519;SDS011;10921;53.614;9.882;2023-10-19T00:26:17;28.88;;;23.70;;
21519;SDS011;10921;53.614;9.882;2023-10-19T00:28:46;27.05;;;24.10;;
21519;SDS011;10921;53.614;9.882;2023-10-19T00:31:19;24.92;;;22.23;;
21519;SDS011;10921;53.614;9.882;2023-10-19T00:36:21;26.85;;;23.70;;
21519;SDS011;10921;53.614;9.882;2023-10-19T00:38:49;27.13;;;24.27;;
21519;SDS011;10921;53.614;9.882;2023-10-19T00:41:24;28.88;;;23.10;;
21519;SDS011;10921;53.614;9.882;2023-10-19T00:43:57;27.90;;;24.90;;
21519;SDS011;10921;53.614;9.882;2023-10-19T00:46:37;26.25;;;23.58;;
21519;SDS011;10921;53.614;9.882;2023-10-19T00:49:08;30.65;;;24.58;;
21519;SDS011;10921;53.614;9.882;2023-10-19T00:51:39;27.52;;;23.88;;
21519;SDS011;10921;53.614;9.882;2023-10-19T00:54:34;25.90;;;23.33;;
21519;SDS011;10921;53.614;9.882;2023-10-19T00:57:04;27.40;;;24.08;;
21519;SDS011;10921;53.614;9.882;2023-10-19T00:59:33;30.25;;;24.45;;
21519;SDS011;10921;53.614;9.882;2023-10-19T01:02:10;26.92;;;24.05;;
21519;SDS011;10921;53.614;9.882;2023-10-19T01:05:03;30.05;;;23.45;;
21519;SDS011;10921;53.614;9.882;2023-10-19T01:07:32;27.20;;;24.50;;
21519;SDS011;10921;53.614;9.882;2023-10-19T01:10:05;26.45;;;23.52;;
21519;SDS011;10921;53.614;9.882;2023-10-19T01:12:39;30.42;;;23.48;;
21519;SDS011;10921;53.614;9.882;2023-10-19T01:15:10;27.38;;;24.30;;
21519;SDS011;10921;53.614;9.882;2023-10-19T01:17:47;27.73;;;23.83;;
21519;SDS011;10921;53.614;9.882;2023-10-19T01:20:20;28.95;;;25.02;;
21519;SDS011;10921;53.614;9.882;2023-10-19T01:28:07;26.88;;;23.77;;
21519;SDS011;10921;53.614;9.882;2023-10-19T01:30:35;26.88;;;23.63;;
21519;SDS011;10921;53.614;9.882;2023-10-19T01:33:03;27.70;;;24.75;;
21519;SDS011;10921;53.614;9.882;2023-10-19T01:35:30;27.83;;;24.92;;
21519;SDS011;10921;53.614;9.882;2023-10-19T01:38:17;26.83;;;23.98;;
21519;SDS011;10921;53.614;9.882;2023-10-19T01:40:43;25.58;;;22.95;;
21519;SDS011;10921;53.614;9.882;2023-10-19T01:43:12;27.85;;;24.85;;
21519;SDS011;10921;53.614;9.882;2023-10-19T01:45:47;28.15;;;24.02;;
21519;SDS011;10921;53.614;9.882;2023-10-19T01:48:14;26.10;;;23.40;;
21519;SDS011;10921;53.614;9.882;2023-10-19T01:50:42;27.02;;;24.13;;
21519;SDS011;10921;53.614;9.882;2023-10-19T01:53:09;26.02;;;23.08;;
21519;SDS011;10921;53.614;9.882;2023-10-19T01:55:44;26.65;;;23.77;;
21519;SDS011;10921;53.614;9.882;2023-10-19T01:58:14;26.05;;;23.30;;
21519;SDS011;10921;53.614;9.882;2023-10-19T02:00:40;25.92;;;23.08;;
21519;SDS011;10921;53.614;9.882;2023-10-19T02:03:10;27.08;;;24.38;;
21519;SDS011;10921;53.614;9.882;2023-10-19T02:05:36;26.73;;;23.92;;
21519;SDS011;10921;53.614;9.882;2023-10-19T02:08:07;28.15;;;25.20;;
21519;SDS011;10921;53.614;9.882;2023-10-19T02:10:34;27.17;;;24.42;;
21519;SDS011;10921;53.614;9.882;2023-10-19T02:13:02;29.95;;;24.17;;
21519;SDS011;10921;53.614;9.882;2023-10-19T02:15:33;26.45;;;23.75;;
21519;SDS011;10921;53.614;9.882;2023-10-19T02:18:03;25.45;;;22.90;;
21519;SDS011;10921;53.614;9.882;2023-10-19T02:20:31;26.15;;;23.42;;
21519;SDS011;10921;53.614;9.882;2023-10-19T02:23:09;28.40;;;24.27;;
21519;SDS011;10921;53.614;9.882;2023-10-19T02:25:36;30.67;;;25.33;;
21519;SDS011;10921;53.614;9.882;2023-10-19T02:28:03;26.77;;;24.00;;
21519;SDS011;10921;53.614;9.882;2023-10-19T02:33:03;32.17;;;23.85;;
21519;SDS011;10921;53.614;9.882;2023-10-19T02:35:32;27.83;;;24.45;;
21519;SDS011;10921;53.614;9.882;2023-10-19T02:38:01;25.63;;;23.02;;
21519;SDS011;10921;53.614;9.882;2023-10-19T02:40:27;27.65;;;24.73;;
21519;SDS011;10921;53.614;9.882;2023-10-19T02:42:59;31.33;;;25.70;;
21519;SDS011;10921;53.614;9.882;2023-10-19T02:45:29;29.33;;;25.35;;
21519;SDS011;10921;53.614;9.882;2023-10-19T02:47:57;25.92;;;23.27;;
21519;SDS011;10921;53.614;9.882;2023-10-19T02:50:24;28.17;;;24.30;;
21519;SDS011;10921;53.614;9.882;2023-10-19T02:52:52;27.33;;;24.42;;
21519;SDS011;10921;53.614;9.882;2023-10-19T02:55:19;27.58;;;24.80;;
21519;SDS011;10921;53.614;9.882;2023-10-19T02:57:49;31.88;;;25.25;;
21519;SDS011;10921;53.614;9.882;2023-10-19T03:00:16;27.40;;;24.45;;
21519;SDS011;10921;53.614;9.882;2023-10-19T03:02:47;30.50;;;25.27;;
21519;SDS011;10921;53.614;9.882;2023-10-19T03:05:14;30.00;;;25.10;;
21519;SDS011;10921;53.614;9.882;2023-10-19T03:07:44;28.52;;;25.50;;
21519;SDS011;10921;53.614;9.882;2023-10-19T03:10:11;30.65;;;26.65;;
21519;SDS011;10921;53.614;9.882;2023-10-19T03:12:56;28.98;;;25.10;;
21519;SDS011;10921;53.614;9.882;2023-10-19T03:15:23;27.67;;;24.35;;
21519;SDS011;10921;53.614;9.882;2023-10-19T03:17:50;26.00;;;23.25;;
21519;SDS011;10921;53.614;9.882;2023-10-19T03:20:16;26.58;;;23.88;;
21519;SDS011;10921;53.614;9.882;2023-10-19T03:22:44;28.17;;;25.17;;
21519;SDS011;10921;53.614;9.882;2023-10-19T03:25:12;28.42;;;25.35;;
21519;SDS011;10921;53.614;9.882;2023-10-19T03:27:57;29.45;;;25.13;;
21519;SDS011;10921;53.614;9.882;2023-10-19T03:30:31;28.05;;;25.13;;
21519;SDS011;10921;53.614;9.882;2023-10-19T03:32:59;31.77;;;27.25;;
21519;SDS011;10921;53.614;9.882;2023-10-19T03:35:26;32.33;;;28.25;;
21519;SDS011;10921;53.614;9.882;2023-10-19T03:37:52;29.42;;;26.33;;
21519;SDS011;10921;53.614;9.882;2023-10-19T03:40:19;33.33;;;29.80;;
21519;SDS011;10921;53.614;9.882;2023-10-19T03:42:56;36.13;;;30.77;;
21519;SDS011;10921;53.614;9.882;2023-10-19T03:45:23;39.17;;;31.73;;
21519;SDS011;10921;53.614;9.882;2023-10-19T03:47:50;38.03;;;34.20;;
21519;SDS011;10921;53.614;9.882;2023-10-19T03:50:19;39.50;;;35.30;;
21519;SDS011;10921;53.614;9.882;2023-10-19T03:52:47;36.83;;;33.22;;
21519;SDS011;10921;53.614;9.882;2023-10-19T03:55:13;42.15;;;36.10;;
21519;SDS011;10921;53.614;9.882;2023-10-19T03:57:49;39.38;;;35.38;;
21519;SDS011;10921;53.614;9.882;2023-10-19T04:00:21;40.42;;;36.08;;
21519;SDS011;10921;53.614;9.882;2023-10-19T04:05:21;43.63;;;37.70;;
21519;SDS011;10921;53.614;9.882;2023-10-19T04:07:52;39.80;;;35.60;;
21519;SDS011;10921;53.614;9.882;2023-10-19T04:10:24;42.72;;;38.15;;
21519;SDS011;10921;53.614;9.882;2023-10-19T04:13:05;40.47;;;36.00;;
21519;SDS011;10921;53.614;9.882;2023-10-19T04:15:39;44.28;;;36.97;;
21519;SDS011;10921;53.614;9.882;2023-10-19T04:18:07;39.17;;;35.17;;
21519;SDS011;10921;53.614;9.882;2023-10-19T04:20:38;40.63;;;36.05;;
21519;SDS011;10921;53.614;9.882;2023-10-19T04:23:14;39.35;;;35.35;;
21519;SDS011;10921;53.614;9.882;2023-10-19T04:25:42;38.45;;;34.45;;
21519;SDS011;10921;53.614;9.882;2023-10-19T04:28:12;39.97;;;35.78;;
21519;SDS011;10921;53.614;9.882;2023-10-19T04:30:47;40.03;;;35.75;;
21519;SDS011;10921;53.614;9.882;2023-10-19T04:33:15;39.60;;;35.42;;
21519;SDS011;10921;53.614;9.882;2023-10-19T04:35:43;43.67;;;37.28;;
21519;SDS011;10921;53.614;9.882;2023-10-19T04:38:10;42.75;;;37.08;;
21519;SDS011;10921;53.614;9.882;2023-10-19T04:40:36;43.33;;;38.80;;
21519;SDS011;10921;53.614;9.882;2023-10-19T04:43:03;43.20;;;38.70;;
21519;SDS011;10921;53.614;9.882;2023-10-19T04:45:33;44.13;;;38.65;;
21519;SDS011;10921;53.614;9.882;2023-10-19T04:47:59;42.55;;;38.15;;
21519;SDS011;10921;53.614;9.882;2023-10-19T04:50:29;45.05;;;40.35;;
21519;SDS011;10921;53.614;9.882;2023-10-19T04:52:55;43.97;;;39.50;;
21519;SDS011;10921;53.614;9.882;2023-10-19T04:55:22;45.50;;;39.70;;
21519;SDS011;10921;53.614;9.882;2023-10-19T04:57:49;45.53;;;40.75;;
21519;SDS011;10921;53.614;9.882;2023-10-19T05:00:17;46.47;;;41.60;;
21519;SDS011;10921;53.614;9.882;2023-10-19T05:02:46;45.75;;;40.53;;
21519;SDS011;10921;53.614;9.882;2023-10-19T05:05:13;46.90;;;42.03;;
21519;SDS011;10921;53.614;9.882;2023-10-19T05:07:43;48.63;;;43.33;;
21519;SDS011;10921;53.614;9.882;2023-10-19T05:10:10;46.22;;;41.55;;
21519;SDS011;10921;53.614;9.882;2023-10-19T05:12:37;47.17;;;41.22;;
21519;SDS011;10921;53.614;9.882;2023-10-19T05:15:03;47.15;;;40.25;;
21519;SDS011;10921;53.614;9.882;2023-10-19T05:17:32;46.65;;;41.30;;
21519;SDS011;10921;53.614;9.882;2023-10-19T05:19:58;49.15;;;42.80;;
21519;SDS011;10921;53.614;9.882;2023-10-19T05:22:25;47.45;;;42.25;;
21519;SDS011;10921;53.614;9.882;2023-10-19T05:24:56;47.55;;;42.35;;
21519;SDS011;10921;53.614;9.882;2023-10-19T05:27:22;47.95;;;41.58;;
21519;SDS011;10921;53.614;9.882;2023-10-19T05:29:49;47.90;;;42.88;;
21519;SDS011;10921;53.614;9.882;2023-10-19T05:32:17;50.30;;;44.72;;
21519;SDS011;10921;53.614;9.882;2023-10-19T05:34:44;47.90;;;42.78;;
21519;SDS011;10921;53.614;9.882;2023-10-19T05:37:11;47.35;;;42.33;;
21519;SDS011;10921;53.614;9.882;2023-10-19T05:39:38;46.25;;;41.28;;
21519;SDS011;10921;53.614;9.882;2023-10-19T05:42:05;50.28;;;42.90;;
21519;SDS011;10921;53.614;9.882;2023-10-19T05:44:32;47.50;;;42.58;;
21519;SDS011;10921;53.614;9.882;2023-10-19T05:46:59;47.80;;;42.05;;
21519;SDS011;10921;53.614;9.882;2023-10-19T05:49:26;46.65;;;41.80;;
21519;SDS011;10921;53.614;9.882;2023-10-19T05:51:57;45.08;;;40.30;;
21519;SDS011;10921;53.614;9.882;2023-10-19T05:54:23;46.88;;;39.25;;
21519;SDS011;10921;53.614;9.882;2023-10-19T05:56:50;46.65;;;40.08;;
21519;SDS011;10921;53.614;9.882;2023-10-19T05:59:20;45.40;;;39.72;;
21519;SDS011;10921;53.614;9.882;2023-10-19T06:01:47;44.80;;;39.78;;
21519;SDS011;10921;53.614;9.882;2023-10-19T06:04:15;45.13;;;40.35;;
21519;SDS011;10921;53.614;9.882;2023-10-19T06:06:46;44.25;;;39.40;;
21519;SDS011;10921;53.614;9.882;2023-10-19T06:09:13;45.70;;;40.58;;
21519;SDS011;10921;53.614;9.882;2023-10-19T06:11:41;46.17;;;40.03;;
21519;SDS011;10921;53.614;9.882;2023-10-19T06:14:10;43.92;;;38.75;;
21519;SDS011;10921;53.614;9.882;2023-10-19T06:16:37;48.40;;;40.50;;
21519;SDS011;10921;53.614;9.882;2023-10-19T06:19:04;50.67;;;41.92;;
21519;SDS011;10921;53.614;9.882;2023-10-19T06:21:31;59.70;;;42.47;;
21519;SDS011;10921;53.614;9.882;2023-10-19T06:23:59;46.40;;;41.33;;
21519;SDS011;10921;53.614;9.882;2023-10-19T06:26:26;50.53;;;41.83;;
21519;SDS011;10921;53.614;9.882;2023-10-19T06:28:53;50.50;;;42.63;;
21519;SDS011;10921;53.614;9.882;2023-10-19T06:31:25;51.05;;;44.05;;
21519;SDS011;10921;53.614;9.882;2023-10-19T06:33:52;52.25;;;42.58;;
21519;SDS011;10921;53.614;9.882;2023-10-19T06:36:19;47.45;;;41.40;;
21519;SDS011;10921;53.614;9.882;2023-10-19T06:38:45;47.90;;;41.67;;
21519;SDS011;10921;53.614;9.882;2023-10-19T06:41:12;52.95;;;44.83;;
21519;SDS011;10921;53.614;9.882;2023-10-19T06:43:40;51.80;;;44.35;;
21519;SDS011;10921;53.614;9.882;2023-10-19T06:46:08;52.50;;;46.88;;
21519;SDS011;10921;53.614;9.882;2023-10-19T06:48:38;62.65;;;48.67;;
21519;SDS011;10921;53.614;9.882;2023-10-19T06:51:05;60.20;;;47.75;;
21519;SDS011;10921;53.614;9.882;2023-10-19T06:53:32;52.92;;;45.95;;
21519;SDS011;10921;53.614;9.882;2023-10-19T06:55:59;53.38;;;47.00;;
21519;SDS011;10921;53.614;9.882;2023-10-19T06:58:27;54.58;;;46.88;;
21519;SDS011;10921;53.614;9.882;2023-10-19T07:00:54;52.33;;;46.58;;
21519;SDS011;10921;53.614;9.882;2023-10-19T07:03:25;55.13;;;48.50;;
21519;SDS011;10921;53.614;9.882;2023-10-19T07:05:54;55.25;;;49.10;;
21519;SDS011;10921;53.614;9.882;2023-10-19T07:08:22;53.15;;;46.30;;
21519;SDS011;10921;53.614;9.882;2023-10-19T07:10:49;52.67;;;47.03;;
21519;SDS011;10921;53.614;9.882;2023-10-19T07:13:16;50.88;;;45.15;;
21519;SDS011;10921;53.614;9.882;2023-10-19T07:15:46;57.78;;;47.05;;
21519;SDS011;10921;53.614;9.882;2023-10-19T07:18:15;55.40;;;47.08;;
21519;SDS011;10921;53.614;9.882;2023-10-19T07:20:42;53.17;;;46.85;;
21519;SDS011;10921;53.614;9.882;2023-10-19T07:23:09;52.38;;;45.75;;
21519;SDS011;10921;53.614;9.882;2023-10-19T07:25:46;52.40;;;45.72;;
21519;SDS011;10921;53.614;9.882;2023-10-19T07:28:15;52.83;;;47.08;;
21519;SDS011;10921;53.614;9.882;2023-10-19T07:30:42;54.00;;;47.42;;
21519;SDS011;10921;53.614;9.882;2023-10-19T07:33:09;52.25;;;46.63;;
21519;SDS011;10921;53.614;9.882;2023-10-19T07:35:37;52.20;;;46.50;;
21519;SDS011;10921;53.614;9.882;2023-10-19T07:38:08;50.75;;;45.17;;
21519;SDS011;10921;53.614;9.882;2023-10-19T07:40:35;51.78;;;46.05;;
21519;SDS011;10921;53.614;9.882;2023-10-19T07:43:02;51.28;;;45.75;;
21519;SDS011;10921;53.614;9.882;2023-10-19T07:45:30;53.03;;;45.13;;
21519;SDS011;10921;53.614;9.882;2023-10-19T07:47:58;52.55;;;46.85;;
21519;SDS011;10921;53.614;9.882;2023-10-19T07:50:36;53.00;;;46.63;;
21519;SDS011;10921;53.614;9.882;2023-10-19T07:53:04;51.88;;;46.38;;
21519;SDS011;10921;53.614;9.882;2023-10-19T07:55:31;53.42;;;47.30;;
21519;SDS011;10921;53.614;9.882;2023-10-19T07:58:00;52.38;;;46.80;;
21519;SDS011;10921;53.614;9.882;2023-10-19T08:00:29;51.60;;;45.95;;
21519;SDS011;10921;53.614;9.882;2023-10-19T08:02:57;49.97;;;44.40;;
21519;SDS011;10921;53.614;9.882;2023-10-19T08:05:25;59.42;;;48.67;;
21519;SDS011;10921;53.614;9.882;2023-10-19T08:07:52;51.80;;;46.05;;
21519;SDS011;10921;53.614;9.882;2023-10-19T08:10:19;54.35;;;45.60;;
21519;SDS011;10921;53.614;9.882;2023-10-19T08:12:47;52.00;;;46.38;;
21519;SDS011;10921;53.614;9.882;2023-10-19T08:15:15;53.35;;;45.13;;
21519;SDS011;10921;53.614;9.882;2023-10-19T08:17:44;55.53;;;46.53;;
21519;SDS011;10921;53.614;9.882;2023-10-19T08:20:14;56.22;;;45.97;;
21519;SDS011;10921;53.614;9.882;2023-10-19T08:22:51;50.40;;;45.13;;
21519;SDS011;10921;53.614;9.882;2023-10-19T08:25:19;50.15;;;44.75;;
21519;SDS011;10921;53.614;9.882;2023-10-19T08:27:49;51.67;;;45.17;;
21519;SDS011;10921;53.614;9.882;2023-10-19T08:30:17;51.08;;;45.58;;
21519;SDS011;10921;53.614;9.882;2023-10-19T08:32:47;54.08;;;46.55;;
21519;SDS011;10921;53.614;9.882;2023-10-19T08:35:15;51.05;;;45.47;;
21519;SDS011;10921;53.614;9.882;2023-10-19T08:37:44;57.92;;;46.00;;
21519;SDS011;10921;53.614;9.882;2023-10-19T08:40:12;57.70;;;47.30;;
21519;SDS011;10921;53.614;9.882;2023-10-19T08:42:41;52.60;;;46.78;;
21519;SDS011;10921;53.614;9.882;2023-10-19T08:45:09;55.78;;;46.05;;
21519;SDS011;10921;53.614;9.882;2023-10-19T08:50:13;51.00;;;45.53;;
21519;SDS011;10921;53.614;9.882;2023-10-19T08:52:43;52.47;;;46.53;;
21519;SDS011;10921;53.614;9.882;2023-10-19T08:55:10;58.58;;;47.15;;
21519;SDS011;10921;53.614;9.882;2023-10-19T08:57:39;52.05;;;46.28;;
21519;SDS011;10921;53.614;9.882;2023-10-19T09:00:07;52.08;;;46.50;;
21519;SDS011;10921;53.614;9.882;2023-10-19T09:02:33;51.63;;;45.83;;
21519;SDS011;10921;53.614;9.882;2023-10-19T09:05:05;51.15;;;45.40;;
21519;SDS011;10921;53.614;9.882;2023-10-19T09:07:33;53.15;;;47.58;;
21519;SDS011;10921;53.614;9.882;2023-10-19T09:10:01;54.67;;;47.22;;
21519;SDS011;10921;53.614;9.882;2023-10-19T09:12:29;53.13;;;47.47;;
21519;SDS011;10921;53.614;9.882;2023-10-19T09:14:56;57.83;;;46.83;;
21519;SDS011;10921;53.614;9.882;2023-10-19T09:17:28;55.88;;;46.60;;
21519;SDS011;10921;53.614;9.882;2023-10-19T09:19:56;53.08;;;46.58;;
21519;SDS011;10921;53.614;9.882;2023-10-19T09:22:22;53.38;;;46.90;;
21519;SDS011;10921;53.614;9.882;2023-10-19T09:24:49;53.45;;;47.70;;
21519;SDS011;10921;53.614;9.882;2023-10-19T09:27:17;52.47;;;46.45;;
21519;SDS011;10921;53.614;9.882;2023-10-19T09:29:43;53.35;;;45.15;;
21519;SDS011;10921;53.614;9.882;2023-10-19T09:32:11;57.20;;;47.90;;
21519;SDS011;10921;53.614;9.882;2023-10-19T09:34:40;51.53;;;45.95;;
21519;SDS011;10921;53.614;9.882;2023-10-19T09:37:10;53.25;;;46.50;;
21519;SDS011;10921;53.614;9.882;2023-10-19T09:39:37;54.47;;;47.78;;
21519;SDS011;10921;53.614;9.882;2023-10-19T09:42:07;51.83;;;46.17;;
21519;SDS011;10921;53.614;9.882;2023-10-19T09:44:40;51.80;;;46.25;;
21519;SDS011;10921;53.614;9.882;2023-10-19T09:47:12;50.05;;;44.58;;
21519;SDS011;10921;53.614;9.882;2023-10-19T09:49:41;51.22;;;45.33;;
21519;SDS011;10921;53.614;9.882;2023-10-19T09:52:09;52.50;;;46.85;;
21519;SDS011;10921;53.614;9.882;2023-10-19T09:54:41;54.13;;;47.90;;
21519;SDS011;10921;53.614;9.882;2023-10-19T09:57:22;50.63;;;44.88;;
21519;SDS011;10921;53.614;9.882;2023-10-19T09:59:59;51.70;;;45.83;;
21519;SDS011;10921;53.614;9.882;2023-10-19T10:02:39;51.25;;;44.95;;
21519;SDS011;10921;53.614;9.882;2023-10-19T10:10:48;51.28;;;45.70;;
21519;SDS011;10921;53.614;9.882;2023-10-19T10:15:53;55.72;;;45.95;;
21519;SDS011;10921;53.614;9.882;2023-10-19T10:18:23;55.95;;;46.22;;
21519;SDS011;10921;53.614;9.882;2023-10-19T10:23:43;47.95;;;42.67;;
21519;SDS011;10921;53.614;9.882;2023-10-19T10:26:16;49.67;;;43.63;;
21519;SDS011;10921;53.614;9.882;2023-10-19T10:28:47;48.00;;;42.85;;
21519;SDS011;10921;53.614;9.882;2023-10-19T10:31:40;47.10;;;41.92;;
21519;SDS011;10921;53.614;9.882;2023-10-19T10:34:11;47.53;;;42.47;;
21519;SDS011;10921;53.614;9.882;2023-10-19T10:36:59;46.30;;;41.50;;
21519;SDS011;10921;53.614;9.882;2023-10-19T10:39:30;48.80;;;42.75;;
21519;SDS011;10921;53.614;9.882;2023-10-19T10:41:58;45.75;;;40.88;;
21519;SDS011;10921;53.614;9.882;2023-10-19T10:44:35;46.55;;;41.65;;
21519;SDS011;10921;53.614;9.882;2023-10-19T10:47:17;52.33;;;44.03;;
21519;SDS011;10921;53.614;9.882;2023-10-19T10:49:52;49.40;;;44.53;;
21519;SDS011;10921;53.614;9.882;2023-10-19T10:52:32;51.78;;;46.40;;
21519;SDS011;10921;53.614;9.882;2023-10-19T10:57:56;49.95;;;44.75;;
21519;SDS011;10921;53.614;9.882;2023-10-19T11:00:23;50.75;;;45.35;;
21519;SDS011;10921;53.614;9.882;2023-10-19T11:03:00;50.50;;;45.35;;
21519;SDS011;10921;53.614;9.882;2023-10-19T11:05:30;49.50;;;44.22;;
21519;SDS011;10921;53.614;9.882;2023-10-19T11:08:09;51.08;;;45.92;;
21519;SDS011;10921;53.614;9.882;2023-10-19T11:10:40;50.42;;;45.20;;
21519;SDS011;10921;53.614;9.882;2023-10-19T11:13:15;50.85;;;45.65;;
21519;SDS011;10921;53.614;9.882;2023-10-19T11:15:49;51.00;;;45.50;;
21519;SDS011;10921;53.614;9.882;2023-10-19T11:20:56;53.63;;;47.38;;
21519;SDS011;10921;53.614;9.882;2023-10-19T11:23:35;53.58;;;47.90;;
21519;SDS011;10921;53.614;9.882;2023-10-19T11:26:05;52.95;;;47.28;;
21519;SDS011;10921;53.614;9.882;2023-10-19T11:28:32;53.13;;;47.65;;
21519;SDS011;10921;53.614;9.882;2023-10-19T11:31:16;53.65;;;48.25;;
21519;SDS011;10921;53.614;9.882;2023-10-19T11:33:48;54.40;;;48.67;;
21519;SDS011;10921;53.614;9.882;2023-10-19T11:36:19;57.13;;;50.95;;
21519;SDS011;10921;53.614;9.882;2023-10-19T11:38:47;52.00;;;46.65;;
21519;SDS011;10921;53.614;9.882;2023-10-19T11:41:15;56.95;;;50.90;;
21519;SDS011;10921;53.614;9.882;2023-10-19T11:43:43;56.00;;;50.03;;
21519;SDS011;10921;53.614;9.882;2023-10-19T11:46:11;54.40;;;48.78;;
21519;SDS011;10921;53.614;9.882;2023-10-19T11:48:38;55.03;;;49.13;;
21519;SDS011;10921;53.614;9.882;2023-10-19T11:51:06;55.15;;;49.10;;
21519;SDS011;10921;53.614;9.882;2023-10-19T11:53:33;55.47;;;48.78;;
21519;SDS011;10921;53.614;9.882;2023-10-19T11:58:30;54.40;;;48.88;;
21519;SDS011;10921;53.614;9.882;2023-10-19T12:00:59;56.80;;;50.38;;
21519;SDS011;10921;53.614;9.882;2023-10-19T12:03:25;58.80;;;50.67;;
21519;SDS011;10921;53.614;9.882;2023-10-19T12:05:52;58.60;;;51.65;;
21519;SDS011;10921;53.614;9.882;2023-10-19T12:08:22;56.42;;;50.60;;
21519;SDS011;10921;53.614;9.882;2023-10-19T12:10:50;53.53;;;47.97;;
21519;SDS011;10921;53.614;9.882;2023-10-19T12:13:17;55.38;;;49.53;;
21519;SDS011;10921;53.614;9.882;2023-10-19T12:15:43;54.63;;;48.78;;
21519;SDS011;10921;53.614;9.882;2023-10-19T12:18:18;56.63;;;50.65;;
21519;SDS011;10921;53.614;9.882;2023-10-19T12:20:46;53.53;;;48.08;;
21519;SDS011;10921;53.614;9.882;2023-10-19T12:23:14;55.42;;;49.63;;
21519;SDS011;10921;53.614;9.882;2023-10-19T12:25:41;55.47;;;49.78;;
21519;SDS011;10921;53.614;9.882;2023-10-19T12:28:15;54.17;;;48.35;;
21519;SDS011;10921;53.614;9.882;2023-10-19T12:30:41;53.05;;;47.63;;
21519;SDS011;10921;53.614;9.882;2023-10-19T12:33:09;51.92;;;46.35;;
21519;SDS011;10921;53.614;9.882;2023-10-19T12:35:39;54.70;;;48.95;;
21519;SDS011;10921;53.614;9.882;2023-10-19T12:38:23;52.70;;;47.00;;
21519;SDS011;10921;53.614;9.882;2023-10-19T12:40:51;51.78;;;46.47;;
21519;SDS011;10921;53.614;9.882;2023-10-19T12:43:18;50.38;;;45.47;;
21519;SDS011;10921;53.614;9.882;2023-10-19T12:45:45;54.58;;;48.72;;
21519;SDS011;10921;53.614;9.882;2023-10-19T12:48:16;52.08;;;46.60;;
21519;SDS011;10921;53.614;9.882;2023-10-19T12:50:43;49.63;;;44.58;;
21519;SDS011;10921;53.614;9.882;2023-10-19T12:53:10;53.30;;;47.38;;
21519;SDS011;10921;53.614;9.882;2023-10-19T12:55:37;50.70;;;45.60;;
21519;SDS011;10921;53.614;9.882;2023-10-19T12:58:04;49.90;;;44.53;;
21519;SDS011;10921;53.614;9.882;2023-10-19T13:00:35;51.25;;;45.25;;
21519;SDS011;10921;53.614;9.882;2023-10-19T13:03:03;52.08;;;44.20;;
21519;SDS011;10921;53.614;9.882;2023-10-19T13:05:32;48.55;;;41.53;;
21519;SDS011;10921;53.614;9.882;2023-10-19T13:07:59;46.63;;;41.50;;
21519;SDS011;10921;53.614;9.882;2023-10-19T13:10:29;47.33;;;42.53;;
21519;SDS011;10921;53.614;9.882;2023-10-19T13:13:00;47.22;;;42.45;;
21519;SDS011;10921;53.614;9.882;2023-10-19T13:15:34;47.15;;;42.15;;
21519;SDS011;10921;53.614;9.882;2023-10-19T13:18:02;48.17;;;42.13;;
21519;SDS011;10921;53.614;9.882;2023-10-19T13:20:30;45.83;;;40.70;;
21519;SDS011;10921;53.614;9.882;2023-10-19T13:23:03;44.83;;;40.00;;
21519;SDS011;10921;53.614;9.882;2023-10-19T13:25:31;45.92;;;40.97;;
21519;SDS011;10921;53.614;9.882;2023-10-19T13:28:27;45.28;;;40.38;;
21519;SDS011;10921;53.614;9.882;2023-10-19T13:30:53;48.60;;;41.55;;
21519;SDS011;10921;53.614;9.882;2023-10-19T13:33:20;45.78;;;40.95;;
21519;SDS011;10921;53.614;9.882;2023-10-19T13:35:48;45.03;;;40.15;;
21519;SDS011;10921;53.614;9.882;2023-10-19T13:38:15;46.83;;;39.80;;
21519;SDS011;10921;53.614;9.882;2023-10-19T13:40:43;45.00;;;39.83;;
21519;SDS011;10921;53.614;9.882;2023-10-19T13:43:13;44.70;;;39.85;;
21519;SDS011;10921;53.614;9.882;2023-10-19T13:45:41;46.97;;;39.70;;
21519;SDS011;10921;53.614;9.882;2023-10-19T13:48:11;48.08;;;40.05;;
21519;SDS011;10921;53.614;9.882;2023-10-19T13:50:43;43.75;;;38.28;;
21519;SDS011;10921;53.614;9.882;2023-10-19T13:53:15;43.92;;;39.22;;
21519;SDS011;10921;53.614;9.882;2023-10-19T13:55:42;42.85;;;37.95;;
21519;SDS011;10921;53.614;9.882;2023-10-19T13:58:10;46.90;;;39.47;;
21519;SDS011;10921;53.614;9.882;2023-10-19T14:00:37;51.45;;;39.83;;
21519;SDS011;10921;53.614;9.882;2023-10-19T14:03:06;47.08;;;40.00;;
21519;SDS011;10921;53.614;9.882;2023-10-19T14:05:38;42.63;;;38.08;;
21519;SDS011;10921;53.614;9.882;2023-10-19T14:08:15;46.60;;;38.63;;
21519;SDS011;10921;53.614;9.882;2023-10-19T14:10:43;46.30;;;37.47;;
21519;SDS011;10921;53.614;9.882;2023-10-19T14:13:10;43.53;;;38.65;;
21519;SDS011;10921;53.614;9.882;2023-10-19T14:15:41;45.53;;;38.40;;
21519;SDS011;10921;53.614;9.882;2023-10-19T14:18:08;40.58;;;36.22;;
21519;SDS011;10921;53.614;9.882;2023-10-19T14:20:35;45.65;;;38.47;;
21519;SDS011;10921;53.614;9.882;2023-10-19T14:23:05;42.70;;;37.72;;
21519;SDS011;10921;53.614;9.882;2023-10-19T14:25:35;48.80;;;37.35;;
21519;SDS011;10921;53.614;9.882;2023-10-19T14:28:02;44.28;;;37.03;;
21519;SDS011;10921;53.614;9.882;2023-10-19T14:30:33;45.03;;;37.10;;
21519;SDS011;10921;53.614;9.882;2023-10-19T14:32:59;44.88;;;36.85;;
21519;SDS011;10921;53.614;9.882;2023-10-19T14:35:26;43.60;;;38.10;;
21519;SDS011;10921;53.614;9.882;2023-10-19T14:37:54;43.35;;;37.92;;
21519;SDS011;10921;53.614;9.882;2023-10-19T14:40:23;47.58;;;35.50;;
21519;SDS011;10921;53.614;9.882;2023-10-19T14:42:55;41.00;;;35.33;;
21519;SDS011;10921;53.614;9.882;2023-10-19T14:45:25;45.53;;;35.60;;
21519;SDS011;10921;53.614;9.882;2023-10-19T14:47:55;45.63;;;35.78;;
21519;SDS011;10921;53.614;9.882;2023-10-19T14:50:29;46.13;;;37.42;;
21519;SDS011;10921;53.614;9.882;2023-10-19T14:52:56;46.47;;;35.30;;
21519;SDS011;10921;53.614;9.882;2023-10-19T14:55:23;44.20;;;35.50;;
21519;SDS011;10921;53.614;9.882;2023-10-19T14:57:51;40.85;;;34.20;;
21519;SDS011;10921;53.614;9.882;2023-10-19T15:00:25;40.83;;;34.72;;
21519;SDS011;10921;53.614;9.882;2023-10-19T15:03:01;42.75;;;35.47;;
21519;SDS011;10921;53.614;9.882;2023-10-19T15:05:34;40.72;;;34.90;;
21519;SDS011;10921;53.614;9.882;2023-10-19T15:10:32;46.72;;;33.20;;
21519;SDS011;10921;53.614;9.882;2023-10-19T15:12:59;42.70;;;34.03;;